sensor_id;sensor_type;location;lat;lon;timestamp;temperature;humidity
6439;DHT22;3252;52.540;13.290;2023-06-10T00:00:16;16.60;99.90
6439;DHT22;3252;52.540;13.290;2023-06-10T00:02:18;16.60;99.90
6439;DHT22;3252;52.540;13.290;2023-06-10T00:04:21;16.60;99.90
6439;DHT22;3252;52.540;13.290;2023-06-10T00:06:23;16.60;99.90
6439;DHT22;3252;52.540;13.290;2023-06-10T00:08:27;16.60;99.90
6439;DHT22;3252;52.540;13.290;2023-06-10T00:10:32;16.70;99.90
6439;DHT22;3252;52.540;13.290;2023-06-10T00:12:35;16.70;99.90
6439;DHT22;3252;52.540;13.290;2023-06-10T00:14:40;16.60;99.90
6439;DHT22;3252;52.540;13.290;2023-06-10T00:16:42;16.60;99.90
6439;DHT22;3252;52.540;13.290;2023-06-10T00:18:45;16.50;99.90
6439;DHT22;3252;52.540;13.290;2023-06-10T00:20:47;16.50;99.90
6439;DHT22;3252;52.540;13.290;2023-06-10T00:22:54;16.50;99.90
6439;DHT22;3252;52.540;13.290;2023-06-10T00:24:59;16.50;99.90
6439;DHT22;3252;52.540;13.290;2023-06-10T00:27:02;16.40;99.90
6439;DHT22;3252;52.540;13.290;2023-06-10T00:29:04;16.40;99.90
6439;DHT22;3252;52.540;13.290;2023-06-10T00:31:07;16.40;99.90
6439;DHT22;3252;52.540;13.290;2023-06-10T00:33:09;16.40;99.90
6439;DHT22;3252;52.540;13.290;2023-06-10T00:35:12;16.40;99.90
6439;DHT22;3252;52.540;13.290;2023-06-10T00:37:14;16.40;99.90
6439;DHT22;3252;52.540;13.290;2023-06-10T00:39:17;16.40;99.90
6439;DHT22;3252;52.540;13.290;2023-06-10T00:41:21;16.40;99.90
6439;DHT22;3252;52.540;13.290;2023-06-10T00:43:25;16.40;99.90
6439;DHT22;3252;52.540;13.290;2023-06-10T00:45:27;16.40;99.90
6439;DHT22;3252;52.540;13.290;2023-06-10T00:47:31;16.40;99.90
6439;DHT22;3252;52.540;13.290;2023-06-10T00:49:34;16.40;99.90
6439;DHT22;3252;52.540;13.290;2023-06-10T00:51:37;16.30;99.90
6439;DHT22;3252;52.540;13.290;2023-06-10T00:53:41;16.20;99.90
6439;DHT22;3252;52.540;13.290;2023-06-10T00:55:43;16.30;99.90
6439;DHT22;3252;52.540;13.290;2023-06-10T00:57:47;16.20;99.90
6439;DHT22;3252;52.540;13.290;2023-06-10T00:59:51;16.30;99.90
6439;DHT22;3252;52.540;13.290;2023-06-10T01:01:53;16.30;99.90
6439;DHT22;3252;52.540;13.290;2023-06-10T01:03:56;16.20;99.90
6439;DHT22;3252;52.540;13.290;2023-06-10T01:06:06;16.20;99.90
6439;DHT22;3252;52.540;13.290;2023-06-10T01:08:16;16.20;99.90
6439;DHT22;3252;52.540;13.290;2023-06-10T01:10:26;16.20;99.90
6439;DHT22;3252;52.540;13.290;2023-06-10T01:12:34;16.10;99.90
6439;DHT22;3252;52.540;13.290;2023-06-10T01:14:39;16.00;99.90
6439;DHT22;3252;52.540;13.290;2023-06-10T01:16:45;16.00;99.90
6439;DHT22;3252;52.540;13.290;2023-06-10T01:18:49;16.00;99.90
6439;DHT22;3252;52.540;13.290;2023-06-10T01:20:53;16.00;99.90
6439;DHT22;3252;52.540;13.290;2023-06-10T01:22:59;15.90;99.90
6439;DHT22;3252;52.540;13.290;2023-06-10T01:25:05;16.00;99.90
6439;DHT22;3252;52.540;13.290;2023-06-10T01:27:12;16.00;99.90
6439;DHT22;3252;52.540;13.290;2023-06-10T01:29:18;16.00;99.90
6439;DHT22;3252;52.540;13.290;2023-06-10T01:31:30;16.00;99.90
6439;DHT22;3252;52.540;13.290;2023-06-10T01:33:37;16.00;99.90
6439;DHT22;3252;52.540;13.290;2023-06-10T01:35:41;16.00;99.90
6439;DHT22;3252;52.540;13.290;2023-06-10T01:37:46;16.00;99.90
6439;DHT22;3252;52.540;13.290;2023-06-10T01:39:50;16.00;99.90
6439;DHT22;3252;52.540;13.290;2023-06-10T01:41:53;16.00;99.90
6439;DHT22;3252;52.540;13.290;2023-06-10T01:43:56;16.00;99.90
6439;DHT22;3252;52.540;13.290;2023-06-10T01:45:58;15.90;99.90
6439;DHT22;3252;52.540;13.290;2023-06-10T01:48:00;15.90;99.90
6439;DHT22;3252;52.540;13.290;2023-06-10T01:50:04;15.90;99.90
6439;DHT22;3252;52.540;13.290;2023-06-10T01:52:09;15.90;99.90
6439;DHT22;3252;52.540;13.290;2023-06-10T01:54:12;15.80;99.90
6439;DHT22;3252;52.540;13.290;2023-06-10T01:56:16;15.80;99.90
6439;DHT22;3252;52.540;13.290;2023-06-10T01:58:20;15.80;99.90
6439;DHT22;3252;52.540;13.290;2023-06-10T02:00:23;15.70;99.90
6439;DHT22;3252;52.540;13.290;2023-06-10T02:02:25;15.70;99.90
6439;DHT22;3252;52.540;13.290;2023-06-10T02:04:27;15.70;99.90
6439;DHT22;3252;52.540;13.290;2023-06-10T02:06:30;15.70;99.90
6439;DHT22;3252;52.540;13.290;2023-06-10T02:08:32;15.70;99.90
6439;DHT22;3252;52.540;13.290;2023-06-10T02:10:35;15.80;99.90
6439;DHT22;3252;52.540;13.290;2023-06-10T02:12:39;15.70;99.90
6439;DHT22;3252;52.540;13.290;2023-06-10T02:14:42;15.70;99.90
6439;DHT22;3252;52.540;13.290;2023-06-10T02:16:44;15.70;99.90
6439;DHT22;3252;52.540;13.290;2023-06-10T02:18:49;15.70;99.90
6439;DHT22;3252;52.540;13.290;2023-06-10T02:20:51;15.70;99.90
6439;DHT22;3252;52.540;13.290;2023-06-10T02:22:54;15.70;99.90
6439;DHT22;3252;52.540;13.290;2023-06-10T02:24:57;15.70;99.90
6439;DHT22;3252;52.540;13.290;2023-06-10T02:26:59;15.70;99.90
6439;DHT22;3252;52.540;13.290;2023-06-10T02:29:04;15.60;99.90
6439;DHT22;3252;52.540;13.290;2023-06-10T02:31:07;15.60;99.90
6439;DHT22;3252;52.540;13.290;2023-06-10T02:33:09;15.60;99.90
6439;DHT22;3252;52.540;13.290;2023-06-10T02:35:13;15.60;99.90
6439;DHT22;3252;52.540;13.290;2023-06-10T02:37:15;15.60;99.90
6439;DHT22;3252;52.540;13.290;2023-06-10T02:39:18;15.60;99.90
6439;DHT22;3252;52.540;13.290;2023-06-10T02:41:21;15.60;99.90
6439;DHT22;3252;52.540;13.290;2023-06-10T02:43:26;15.60;99.90
6439;DHT22;3252;52.540;13.290;2023-06-10T02:45:30;15.50;99.90
6439;DHT22;3252;52.540;13.290;2023-06-10T02:47:34;15.50;99.90
6439;DHT22;3252;52.540;13.290;2023-06-10T02:49:36;15.50;99.90
6439;DHT22;3252;52.540;13.290;2023-06-10T02:51:38;15.60;99.90
6439;DHT22;3252;52.540;13.290;2023-06-10T02:53:41;15.50;99.90
6439;DHT22;3252;52.540;13.290;2023-06-10T02:55:46;15.50;99.90
6439;DHT22;3252;52.540;13.290;2023-06-10T02:57:51;15.50;99.90
6439;DHT22;3252;52.540;13.290;2023-06-10T02:59:55;15.50;99.90
6439;DHT22;3252;52.540;13.290;2023-06-10T03:01:59;15.40;99.90
6439;DHT22;3252;52.540;13.290;2023-06-10T03:04:05;15.40;99.90
6439;DHT22;3252;52.540;13.290;2023-06-10T03:06:09;15.40;99.90
6439;DHT22;3252;52.540;13.290;2023-06-10T03:08:14;15.40;99.90
6439;DHT22;3252;52.540;13.290;2023-06-10T03:10:17;15.40;99.90
6439;DHT22;3252;52.540;13.290;2023-06-10T03:12:20;15.40;99.90
6439;DHT22;3252;52.540;13.290;2023-06-10T03:14:24;15.40;99.90
6439;DHT22;3252;52.540;13.290;2023-06-10T03:16:28;15.30;99.90
6439;DHT22;3252;52.540;13.290;2023-06-10T03:18:38;15.30;99.90
6439;DHT22;3252;52.540;13.290;2023-06-10T03:20:41;15.30;99.90
6439;DHT22;3252;52.540;13.290;2023-06-10T03:22:53;15.30;99.90
6439;DHT22;3252;52.540;13.290;2023-06-10T03:24:57;15.30;99.90
6439;DHT22;3252;52.540;13.290;2023-06-10T03:27:01;15.40;99.90
6439;DHT22;3252;52.540;13.290;2023-06-10T03:29:06;15.40;99.90
6439;DHT22;3252;52.540;13.290;2023-06-10T03:31:08;15.40;99.90
6439;DHT22;3252;52.540;13.290;2023-06-10T03:33:11;15.40;99.90
6439;DHT22;3252;52.540;13.290;2023-06-10T03:35:17;15.40;99.90
6439;DHT22;3252;52.540;13.290;2023-06-10T03:37:20;15.40;99.90
6439;DHT22;3252;52.540;13.290;2023-06-10T03:39:23;15.30;99.90
6439;DHT22;3252;52.540;13.290;2023-06-10T03:41:26;15.40;99.90
6439;DHT22;3252;52.540;13.290;2023-06-10T03:43:29;15.40;99.90
6439;DHT22;3252;52.540;13.290;2023-06-10T03:45:32;15.40;99.90
6439;DHT22;3252;52.540;13.290;2023-06-10T03:47:35;15.40;99.90
6439;DHT22;3252;52.540;13.290;2023-06-10T03:49:40;15.40;99.90
6439;DHT22;3252;52.540;13.290;2023-06-10T03:51:46;15.40;99.90
6439;DHT22;3252;52.540;13.290;2023-06-10T03:53:49;15.40;99.90
6439;DHT22;3252;52.540;13.290;2023-06-10T03:55:52;15.40;99.90
6439;DHT22;3252;52.540;13.290;2023-06-10T03:57:57;15.50;99.90
6439;DHT22;3252;52.540;13.290;2023-06-10T04:00:00;15.50;99.90
6439;DHT22;3252;52.540;13.290;2023-06-10T04:02:16;15.40;99.90
6439;DHT22;3252;52.540;13.290;2023-06-10T04:04:19;15.50;99.90
6439;DHT22;3252;52.540;13.290;2023-06-10T04:06:21;15.50;99.90
6439;DHT22;3252;52.540;13.290;2023-06-10T04:08:30;15.40;99.90
6439;DHT22;3252;52.540;13.290;2023-06-10T04:10:34;15.40;99.90
6439;DHT22;3252;52.540;13.290;2023-06-10T04:12:37;15.40;99.90
6439;DHT22;3252;52.540;13.290;2023-06-10T04:14:40;15.40;99.90
6439;DHT22;3252;52.540;13.290;2023-06-10T04:16:46;15.50;99.90
6439;DHT22;3252;52.540;13.290;2023-06-10T04:18:49;15.50;99.90
6439;DHT22;3252;52.540;13.290;2023-06-10T04:20:52;15.50;99.90
6439;DHT22;3252;52.540;13.290;2023-06-10T04:22:54;15.60;99.90
6439;DHT22;3252;52.540;13.290;2023-06-10T04:24:58;15.60;99.90
6439;DHT22;3252;52.540;13.290;2023-06-10T04:27:01;15.60;99.90
6439;DHT22;3252;52.540;13.290;2023-06-10T04:29:04;15.60;99.90
6439;DHT22;3252;52.540;13.290;2023-06-10T04:31:07;15.60;99.90
6439;DHT22;3252;52.540;13.290;2023-06-10T04:33:10;15.70;99.90
6439;DHT22;3252;52.540;13.290;2023-06-10T04:35:15;15.70;99.90
6439;DHT22;3252;52.540;13.290;2023-06-10T04:37:20;15.80;99.90
6439;DHT22;3252;52.540;13.290;2023-06-10T04:39:23;15.80;99.90
6439;DHT22;3252;52.540;13.290;2023-06-10T04:41:29;15.90;99.90
6439;DHT22;3252;52.540;13.290;2023-06-10T04:43:32;15.90;99.90
6439;DHT22;3252;52.540;13.290;2023-06-10T04:45:35;16.00;99.90
6439;DHT22;3252;52.540;13.290;2023-06-10T04:47:37;16.00;99.90
6439;DHT22;3252;52.540;13.290;2023-06-10T04:49:41;16.00;99.90
6439;DHT22;3252;52.540;13.290;2023-06-10T04:51:43;16.00;99.90
6439;DHT22;3252;52.540;13.290;2023-06-10T04:53:46;16.00;99.90
6439;DHT22;3252;52.540;13.290;2023-06-10T04:55:49;16.10;99.90
6439;DHT22;3252;52.540;13.290;2023-06-10T04:57:52;16.20;99.90
6439;DHT22;3252;52.540;13.290;2023-06-10T04:59:54;16.20;99.90
6439;DHT22;3252;52.540;13.290;2023-06-10T05:01:57;16.30;99.90
6439;DHT22;3252;52.540;13.290;2023-06-10T05:03:59;16.30;99.90
6439;DHT22;3252;52.540;13.290;2023-06-10T05:06:02;16.30;99.90
6439;DHT22;3252;52.540;13.290;2023-06-10T05:08:04;16.30;99.90
6439;DHT22;3252;52.540;13.290;2023-06-10T05:10:07;16.30;99.90
6439;DHT22;3252;52.540;13.290;2023-06-10T05:12:10;16.10;99.90
6439;DHT22;3252;52.540;13.290;2023-06-10T05:14:14;16.20;99.90
6439;DHT22;3252;52.540;13.290;2023-06-10T05:16:17;16.20;99.90
6439;DHT22;3252;52.540;13.290;2023-06-10T05:18:20;16.20;99.90
6439;DHT22;3252;52.540;13.290;2023-06-10T05:20:27;16.20;99.90
6439;DHT22;3252;52.540;13.290;2023-06-10T05:22:30;16.30;99.90
6439;DHT22;3252;52.540;13.290;2023-06-10T05:24:33;16.30;99.90
6439;DHT22;3252;52.540;13.290;2023-06-10T05:26:35;16.30;99.90
6439;DHT22;3252;52.540;13.290;2023-06-10T05:28:39;16.30;99.90
6439;DHT22;3252;52.540;13.290;2023-06-10T05:30:43;16.30;99.90
6439;DHT22;3252;52.540;13.290;2023-06-10T05:32:46;16.30;99.90
6439;DHT22;3252;52.540;13.290;2023-06-10T05:34:48;16.40;99.90
6439;DHT22;3252;52.540;13.290;2023-06-10T05:36:51;16.30;99.90
6439;DHT22;3252;52.540;13.290;2023-06-10T05:38:54;16.40;99.90
6439;DHT22;3252;52.540;13.290;2023-06-10T05:40:57;16.30;99.90
6439;DHT22;3252;52.540;13.290;2023-06-10T05:43:00;16.40;99.90
6439;DHT22;3252;52.540;13.290;2023-06-10T05:45:03;16.40;99.90
6439;DHT22;3252;52.540;13.290;2023-06-10T05:47:08;16.40;99.90
6439;DHT22;3252;52.540;13.290;2023-06-10T05:49:12;16.60;99.90
6439;DHT22;3252;52.540;13.290;2023-06-10T05:51:14;16.70;99.90
6439;DHT22;3252;52.540;13.290;2023-06-10T05:53:16;16.80;99.90
6439;DHT22;3252;52.540;13.290;2023-06-10T05:55:19;17.00;99.90
6439;DHT22;3252;52.540;13.290;2023-06-10T05:57:36;17.10;99.90
6439;DHT22;3252;52.540;13.290;2023-06-10T05:59:38;17.20;99.90
6439;DHT22;3252;52.540;13.290;2023-06-10T06:01:43;17.40;99.90
6439;DHT22;3252;52.540;13.290;2023-06-10T06:03:50;17.60;99.90
6439;DHT22;3252;52.540;13.290;2023-06-10T06:05:52;17.80;99.90
6439;DHT22;3252;52.540;13.290;2023-06-10T06:07:55;17.90;99.90
6439;DHT22;3252;52.540;13.290;2023-06-10T06:09:58;18.00;99.90
6439;DHT22;3252;52.540;13.290;2023-06-10T06:12:01;18.00;99.90
6439;DHT22;3252;52.540;13.290;2023-06-10T06:14:03;18.10;99.90
6439;DHT22;3252;52.540;13.290;2023-06-10T06:16:05;18.10;99.90
6439;DHT22;3252;52.540;13.290;2023-06-10T06:18:08;18.10;99.90
6439;DHT22;3252;52.540;13.290;2023-06-10T06:20:13;18.10;99.90
6439;DHT22;3252;52.540;13.290;2023-06-10T06:22:17;18.10;99.90
6439;DHT22;3252;52.540;13.290;2023-06-10T06:24:22;18.10;99.90
6439;DHT22;3252;52.540;13.290;2023-06-10T06:26:29;18.20;99.90
6439;DHT22;3252;52.540;13.290;2023-06-10T06:28:31;18.30;99.90
6439;DHT22;3252;52.540;13.290;2023-06-10T06:30:38;18.30;99.90
6439;DHT22;3252;52.540;13.290;2023-06-10T06:32:41;18.30;99.90
6439;DHT22;3252;52.540;13.290;2023-06-10T06:34:45;18.40;99.90
6439;DHT22;3252;52.540;13.290;2023-06-10T06:36:48;18.50;99.90
6439;DHT22;3252;52.540;13.290;2023-06-10T06:38:52;18.70;99.90
6439;DHT22;3252;52.540;13.290;2023-06-10T06:40:56;18.80;99.90
6439;DHT22;3252;52.540;13.290;2023-06-10T06:43:04;18.90;99.90
6439;DHT22;3252;52.540;13.290;2023-06-10T06:45:16;18.90;99.90
6439;DHT22;3252;52.540;13.290;2023-06-10T06:47:24;19.00;99.90
6439;DHT22;3252;52.540;13.290;2023-06-10T06:49:30;19.10;99.90
6439;DHT22;3252;52.540;13.290;2023-06-10T06:51:32;19.20;99.90
6439;DHT22;3252;52.540;13.290;2023-06-10T06:53:38;19.30;99.90
6439;DHT22;3252;52.540;13.290;2023-06-10T06:55:45;19.40;99.90
6439;DHT22;3252;52.540;13.290;2023-06-10T06:57:54;19.50;99.90
6439;DHT22;3252;52.540;13.290;2023-06-10T06:59:57;19.50;99.90
6439;DHT22;3252;52.540;13.290;2023-06-10T07:01:59;19.50;99.90
6439;DHT22;3252;52.540;13.290;2023-06-10T07:04:03;19.40;99.90
6439;DHT22;3252;52.540;13.290;2023-06-10T07:06:37;19.30;99.90
6439;DHT22;3252;52.540;13.290;2023-06-10T07:08:41;19.30;99.90
6439;DHT22;3252;52.540;13.290;2023-06-10T07:10:44;19.40;99.90
6439;DHT22;3252;52.540;13.290;2023-06-10T07:12:48;19.40;99.90
6439;DHT22;3252;52.540;13.290;2023-06-10T07:14:50;19.50;99.90
6439;DHT22;3252;52.540;13.290;2023-06-10T07:16:55;19.50;99.90
6439;DHT22;3252;52.540;13.290;2023-06-10T07:18:57;19.60;99.90
6439;DHT22;3252;52.540;13.290;2023-06-10T07:21:00;19.60;99.90
6439;DHT22;3252;52.540;13.290;2023-06-10T07:23:02;19.70;99.90
6439;DHT22;3252;52.540;13.290;2023-06-10T07:25:07;19.70;99.90
6439;DHT22;3252;52.540;13.290;2023-06-10T07:27:09;19.70;99.90
6439;DHT22;3252;52.540;13.290;2023-06-10T07:29:11;19.90;99.90
6439;DHT22;3252;52.540;13.290;2023-06-10T07:31:15;20.00;99.90
6439;DHT22;3252;52.540;13.290;2023-06-10T07:33:20;20.20;99.90
6439;DHT22;3252;52.540;13.290;2023-06-10T07:35:27;20.30;99.90
6439;DHT22;3252;52.540;13.290;2023-06-10T07:37:30;20.50;99.90
6439;DHT22;3252;52.540;13.290;2023-06-10T07:39:32;20.60;99.90
6439;DHT22;3252;52.540;13.290;2023-06-10T07:41:37;20.60;99.90
6439;DHT22;3252;52.540;13.290;2023-06-10T07:43:39;20.70;99.90
6439;DHT22;3252;52.540;13.290;2023-06-10T07:45:42;20.80;99.90
6439;DHT22;3252;52.540;13.290;2023-06-10T07:47:52;20.90;99.90
6439;DHT22;3252;52.540;13.290;2023-06-10T07:49:56;21.00;99.90
6439;DHT22;3252;52.540;13.290;2023-06-10T07:52:01;21.10;99.90
6439;DHT22;3252;52.540;13.290;2023-06-10T07:54:04;21.20;99.90
6439;DHT22;3252;52.540;13.290;2023-06-10T07:56:08;21.40;99.90
6439;DHT22;3252;52.540;13.290;2023-06-10T07:58:14;21.60;99.90
6439;DHT22;3252;52.540;13.290;2023-06-10T08:00:17;21.80;99.80
6439;DHT22;3252;52.540;13.290;2023-06-10T08:02:21;21.60;99.70
6439;DHT22;3252;52.540;13.290;2023-06-10T08:04:24;21.70;99.80
6439;DHT22;3252;52.540;13.290;2023-06-10T08:06:27;21.70;99.30
6439;DHT22;3252;52.540;13.290;2023-06-10T08:08:31;21.80;99.50
6439;DHT22;3252;52.540;13.290;2023-06-10T08:10:36;21.90;99.50
6439;DHT22;3252;52.540;13.290;2023-06-10T08:12:38;21.90;99.30
6439;DHT22;3252;52.540;13.290;2023-06-10T08:14:52;21.90;99.10
6439;DHT22;3252;52.540;13.290;2023-06-10T08:16:55;22.00;99.20
6439;DHT22;3252;52.540;13.290;2023-06-10T08:18:58;22.10;99.30
6439;DHT22;3252;52.540;13.290;2023-06-10T08:21:00;22.00;99.20
6439;DHT22;3252;52.540;13.290;2023-06-10T08:23:03;22.10;99.20
6439;DHT22;3252;52.540;13.290;2023-06-10T08:25:06;22.20;99.40
6439;DHT22;3252;52.540;13.290;2023-06-10T08:27:08;22.30;99.20
6439;DHT22;3252;52.540;13.290;2023-06-10T08:29:12;22.40;98.80
6439;DHT22;3252;52.540;13.290;2023-06-10T08:31:26;22.50;98.50
6439;DHT22;3252;52.540;13.290;2023-06-10T08:33:28;22.50;98.00
6439;DHT22;3252;52.540;13.290;2023-06-10T08:35:31;22.50;97.50
6439;DHT22;3252;52.540;13.290;2023-06-10T08:37:34;22.60;97.70
6439;DHT22;3252;52.540;13.290;2023-06-10T08:39:36;22.70;98.00
6439;DHT22;3252;52.540;13.290;2023-06-10T08:41:43;22.90;98.00
6439;DHT22;3252;52.540;13.290;2023-06-10T08:43:58;23.10;97.60
6439;DHT22;3252;52.540;13.290;2023-06-10T08:46:02;23.30;96.60
6439;DHT22;3252;52.540;13.290;2023-06-10T08:48:08;23.40;96.30
6439;DHT22;3252;52.540;13.290;2023-06-10T08:50:17;23.50;96.50
6439;DHT22;3252;52.540;13.290;2023-06-10T08:52:20;23.60;96.20
6439;DHT22;3252;52.540;13.290;2023-06-10T08:54:31;23.50;95.80
6439;DHT22;3252;52.540;13.290;2023-06-10T08:56:39;23.50;96.10
6439;DHT22;3252;52.540;13.290;2023-06-10T08:58:45;23.30;96.00
6439;DHT22;3252;52.540;13.290;2023-06-10T09:00:48;23.20;96.50
6439;DHT22;3252;52.540;13.290;2023-06-10T09:02:52;23.30;97.00
6439;DHT22;3252;52.540;13.290;2023-06-10T09:04:57;23.40;96.60
6439;DHT22;3252;52.540;13.290;2023-06-10T09:07:02;23.20;96.30
6439;DHT22;3252;52.540;13.290;2023-06-10T09:09:06;23.10;96.80
6439;DHT22;3252;52.540;13.290;2023-06-10T09:11:08;23.10;96.80
6439;DHT22;3252;52.540;13.290;2023-06-10T09:13:10;23.00;97.00
6439;DHT22;3252;52.540;13.290;2023-06-10T09:15:19;22.90;96.80
6439;DHT22;3252;52.540;13.290;2023-06-10T09:17:22;22.80;96.90
6439;DHT22;3252;52.540;13.290;2023-06-10T09:19:25;22.70;97.40
6439;DHT22;3252;52.540;13.290;2023-06-10T09:21:30;22.60;97.90
6439;DHT22;3252;52.540;13.290;2023-06-10T09:23:34;22.60;97.70
6439;DHT22;3252;52.540;13.290;2023-06-10T09:25:38;22.70;97.80
6439;DHT22;3252;52.540;13.290;2023-06-10T09:27:44;22.40;97.80
6439;DHT22;3252;52.540;13.290;2023-06-10T09:29:52;22.30;98.40
6439;DHT22;3252;52.540;13.290;2023-06-10T09:31:55;22.30;98.50
6439;DHT22;3252;52.540;13.290;2023-06-10T09:34:05;22.20;98.60
6439;DHT22;3252;52.540;13.290;2023-06-10T09:36:08;22.10;98.80
6439;DHT22;3252;52.540;13.290;2023-06-10T09:38:13;22.20;98.80
6439;DHT22;3252;52.540;13.290;2023-06-10T09:40:16;22.20;98.70
6439;DHT22;3252;52.540;13.290;2023-06-10T09:42:19;22.20;98.90
6439;DHT22;3252;52.540;13.290;2023-06-10T09:44:22;22.20;98.80
6439;DHT22;3252;52.540;13.290;2023-06-10T09:46:30;22.20;99.10
6439;DHT22;3252;52.540;13.290;2023-06-10T09:48:35;22.10;99.40
6439;DHT22;3252;52.540;13.290;2023-06-10T09:50:42;21.90;99.60
6439;DHT22;3252;52.540;13.290;2023-06-10T09:52:46;21.90;99.80
6439;DHT22;3252;52.540;13.290;2023-06-10T09:54:50;21.80;99.90
6439;DHT22;3252;52.540;13.290;2023-06-10T09:56:53;21.70;99.90
6439;DHT22;3252;52.540;13.290;2023-06-10T09:58:57;21.70;99.90
6439;DHT22;3252;52.540;13.290;2023-06-10T10:00:59;21.80;99.90
6439;DHT22;3252;52.540;13.290;2023-06-10T10:03:06;21.80;99.90
6439;DHT22;3252;52.540;13.290;2023-06-10T10:05:09;21.80;99.90
6439;DHT22;3252;52.540;13.290;2023-06-10T10:07:12;21.80;99.90
6439;DHT22;3252;52.540;13.290;2023-06-10T10:09:14;21.80;99.90
6439;DHT22;3252;52.540;13.290;2023-06-10T10:11:20;21.80;99.90
6439;DHT22;3252;52.540;13.290;2023-06-10T10:13:26;21.70;99.90
6439;DHT22;3252;52.540;13.290;2023-06-10T10:15:31;21.60;99.90
6439;DHT22;3252;52.540;13.290;2023-06-10T10:17:39;21.60;99.90
6439;DHT22;3252;52.540;13.290;2023-06-10T10:19:46;21.40;99.90
6439;DHT22;3252;52.540;13.290;2023-06-10T10:22:01;21.50;99.90
6439;DHT22;3252;52.540;13.290;2023-06-10T10:24:20;21.50;99.90
6439;DHT22;3252;52.540;13.290;2023-06-10T10:26:26;21.50;99.90
6439;DHT22;3252;52.540;13.290;2023-06-10T10:28:36;21.40;99.90
6439;DHT22;3252;52.540;13.290;2023-06-10T10:30:42;21.30;99.90
6439;DHT22;3252;52.540;13.290;2023-06-10T10:32:57;21.20;99.90
6439;DHT22;3252;52.540;13.290;2023-06-10T10:35:08;21.20;99.90
6439;DHT22;3252;52.540;13.290;2023-06-10T10:37:20;21.20;99.90
6439;DHT22;3252;52.540;13.290;2023-06-10T10:39:22;21.10;99.90
6439;DHT22;3252;52.540;13.290;2023-06-10T10:41:26;21.10;99.90
6439;DHT22;3252;52.540;13.290;2023-06-10T10:43:29;21.10;99.90
6439;DHT22;3252;52.540;13.290;2023-06-10T10:45:33;21.10;99.90
6439;DHT22;3252;52.540;13.290;2023-06-10T10:47:36;21.10;99.90
6439;DHT22;3252;52.540;13.290;2023-06-10T10:49:43;21.20;99.90
6439;DHT22;3252;52.540;13.290;2023-06-10T10:51:55;21.10;99.90
6439;DHT22;3252;52.540;13.290;2023-06-10T10:54:11;21.10;99.90
6439;DHT22;3252;52.540;13.290;2023-06-10T10:56:16;21.10;99.90
6439;DHT22;3252;52.540;13.290;2023-06-10T10:58:24;21.20;99.90
6439;DHT22;3252;52.540;13.290;2023-06-10T11:00:28;21.20;99.90
6439;DHT22;3252;52.540;13.290;2023-06-10T11:02:37;21.10;99.90
6439;DHT22;3252;52.540;13.290;2023-06-10T11:04:45;21.10;99.90
6439;DHT22;3252;52.540;13.290;2023-06-10T11:06:52;21.10;99.90
6439;DHT22;3252;52.540;13.290;2023-06-10T11:09:28;21.20;99.90
6439;DHT22;3252;52.540;13.290;2023-06-10T11:11:31;21.20;99.90
6439;DHT22;3252;52.540;13.290;2023-06-10T11:13:33;21.30;99.90
6439;DHT22;3252;52.540;13.290;2023-06-10T11:15:43;21.40;99.90
6439;DHT22;3252;52.540;13.290;2023-06-10T11:18:08;21.40;99.90
6439;DHT22;3252;52.540;13.290;2023-06-10T11:20:10;21.50;99.90
6439;DHT22;3252;52.540;13.290;2023-06-10T11:22:17;21.50;99.90
6439;DHT22;3252;52.540;13.290;2023-06-10T11:24:19;21.60;99.90
6439;DHT22;3252;52.540;13.290;2023-06-10T11:26:31;21.60;99.90
6439;DHT22;3252;52.540;13.290;2023-06-10T11:28:35;21.70;99.90
6439;DHT22;3252;52.540;13.290;2023-06-10T11:30:37;21.80;99.90
6439;DHT22;3252;52.540;13.290;2023-06-10T11:32:42;21.90;99.90
6439;DHT22;3252;52.540;13.290;2023-06-10T11:34:52;22.00;99.90
6439;DHT22;3252;52.540;13.290;2023-06-10T11:36:54;22.00;99.90
6439;DHT22;3252;52.540;13.290;2023-06-10T11:38:58;22.10;99.90
6439;DHT22;3252;52.540;13.290;2023-06-10T11:41:02;22.30;99.90
6439;DHT22;3252;52.540;13.290;2023-06-10T11:43:06;22.40;99.90
6439;DHT22;3252;52.540;13.290;2023-06-10T11:45:15;22.50;99.90
6439;DHT22;3252;52.540;13.290;2023-06-10T11:47:18;22.60;99.90
6439;DHT22;3252;52.540;13.290;2023-06-10T11:49:21;22.80;99.90
6439;DHT22;3252;52.540;13.290;2023-06-10T11:51:26;22.90;98.70
6439;DHT22;3252;52.540;13.290;2023-06-10T11:53:28;22.80;97.80
6439;DHT22;3252;52.540;13.290;2023-06-10T11:55:41;22.80;98.10
6439;DHT22;3252;52.540;13.290;2023-06-10T11:57:44;22.70;98.80
6439;DHT22;3252;52.540;13.290;2023-06-10T11:59:47;22.70;99.30
6439;DHT22;3252;52.540;13.290;2023-06-10T12:01:50;22.80;99.60
6439;DHT22;3252;52.540;13.290;2023-06-10T12:04:00;22.70;99.70
6439;DHT22;3252;52.540;13.290;2023-06-10T12:06:03;22.70;99.20
6439;DHT22;3252;52.540;13.290;2023-06-10T12:08:10;22.70;99.20
6439;DHT22;3252;52.540;13.290;2023-06-10T12:10:13;22.80;99.60
6439;DHT22;3252;52.540;13.290;2023-06-10T12:12:15;22.80;99.50
6439;DHT22;3252;52.540;13.290;2023-06-10T12:14:52;22.80;99.70
6439;DHT22;3252;52.540;13.290;2023-06-10T12:16:56;23.00;99.80
6439;DHT22;3252;52.540;13.290;2023-06-10T12:19:04;23.20;99.90
6439;DHT22;3252;52.540;13.290;2023-06-10T12:21:18;23.50;99.90
6439;DHT22;3252;52.540;13.290;2023-06-10T12:23:21;23.60;99.90
6439;DHT22;3252;52.540;13.290;2023-06-10T12:25:28;23.80;99.90
6439;DHT22;3252;52.540;13.290;2023-06-10T12:27:35;24.00;99.90
6439;DHT22;3252;52.540;13.290;2023-06-10T12:29:38;24.20;99.90
6439;DHT22;3252;52.540;13.290;2023-06-10T12:31:58;24.40;98.10
6439;DHT22;3252;52.540;13.290;2023-06-10T12:34:10;24.50;95.10
6439;DHT22;3252;52.540;13.290;2023-06-10T12:36:16;24.60;95.60
6439;DHT22;3252;52.540;13.290;2023-06-10T12:38:22;24.80;93.80
6439;DHT22;3252;52.540;13.290;2023-06-10T12:40:29;24.90;92.60
6439;DHT22;3252;52.540;13.290;2023-06-10T12:42:32;25.00;85.60
6439;DHT22;3252;52.540;13.290;2023-06-10T12:44:39;25.10;81.80
6439;DHT22;3252;52.540;13.290;2023-06-10T12:46:42;25.20;75.90
6439;DHT22;3252;52.540;13.290;2023-06-10T12:48:51;25.30;74.00
6439;DHT22;3252;52.540;13.290;2023-06-10T12:50:56;25.40;76.90
6439;DHT22;3252;52.540;13.290;2023-06-10T12:52:59;25.50;75.40
6439;DHT22;3252;52.540;13.290;2023-06-10T12:55:02;25.60;75.30
6439;DHT22;3252;52.540;13.290;2023-06-10T12:57:05;25.70;75.00
6439;DHT22;3252;52.540;13.290;2023-06-10T12:59:07;25.80;74.80
6439;DHT22;3252;52.540;13.290;2023-06-10T13:01:10;25.90;72.10
6439;DHT22;3252;52.540;13.290;2023-06-10T13:03:12;26.00;71.60
6439;DHT22;3252;52.540;13.290;2023-06-10T13:05:16;26.00;72.10
6439;DHT22;3252;52.540;13.290;2023-06-10T13:07:18;26.10;71.90
6439;DHT22;3252;52.540;13.290;2023-06-10T13:09:21;26.20;72.40
6439;DHT22;3252;52.540;13.290;2023-06-10T13:11:24;26.20;73.10
6439;DHT22;3252;52.540;13.290;2023-06-10T13:13:26;26.30;73.50
6439;DHT22;3252;52.540;13.290;2023-06-10T13:15:31;26.30;73.40
6439;DHT22;3252;52.540;13.290;2023-06-10T13:17:34;26.40;73.80
6439;DHT22;3252;52.540;13.290;2023-06-10T13:19:36;26.40;73.90